sensor_id;sensor_type;location;lat;lon;timestamp;P1;durP1;ratioP1;P2;durP2;ratioP2
7931;SDS011;4011;49.424;10.894;2023-07-08T00:04:17;7.38;;;5.03;;
7931;SDS011;4011;49.424;10.894;2023-07-08T00:09:38;6.30;;;4.65;;
7931;SDS011;4011;49.424;10.894;2023-07-08T00:15:00;5.65;;;4.38;;
7931;SDS011;4011;49.424;10.894;2023-07-08T00:20:26;6.30;;;4.45;;
7931;SDS011;4011;49.424;10.894;2023-07-08T00:25:52;7.15;;;4.90;;
7931;SDS011;4011;49.424;10.894;2023-07-08T00:31:14;6.43;;;4.55;;
7931;SDS011;4011;49.424;10.894;2023-07-08T00:36:37;6.30;;;4.40;;
7931;SDS011;4011;49.424;10.894;2023-07-08T00:41:59;6.85;;;4.70;;
7931;SDS011;4011;49.424;10.894;2023-07-08T00:47:21;5.88;;;4.47;;
7931;SDS011;4011;49.424;10.894;2023-07-08T00:52:47;6.72;;;4.80;;
7931;SDS011;4011;49.424;10.894;2023-07-08T00:58:09;6.57;;;4.82;;
7931;SDS011;4011;49.424;10.894;2023-07-08T01:03:31;6.32;;;4.75;;
7931;SDS011;4011;49.424;10.894;2023-07-08T01:08:56;6.25;;;4.65;;
7931;SDS011;4011;49.424;10.894;2023-07-08T01:14:18;6.68;;;4.78;;
7931;SDS011;4011;49.424;10.894;2023-07-08T01:19:40;6.18;;;4.80;;
7931;SDS011;4011;49.424;10.894;2023-07-08T01:25:04;6.93;;;5.10;;
7931;SDS011;4011;49.424;10.894;2023-07-08T01:30:26;7.43;;;4.90;;
7931;SDS011;4011;49.424;10.894;2023-07-08T01:35:48;7.32;;;5.40;;
7931;SDS011;4011;49.424;10.894;2023-07-08T01:41:12;6.78;;;5.05;;
7931;SDS011;4011;49.424;10.894;2023-07-08T01:46:34;7.35;;;5.35;;
7931;SDS011;4011;49.424;10.894;2023-07-08T01:51:56;8.15;;;5.13;;
7931;SDS011;4011;49.424;10.894;2023-07-08T01:57:20;6.80;;;5.03;;
7931;SDS011;4011;49.424;10.894;2023-07-08T02:02:41;6.93;;;4.90;;
7931;SDS011;4011;49.424;10.894;2023-07-08T02:08:03;6.15;;;4.70;;
7931;SDS011;4011;49.424;10.894;2023-07-08T02:13:26;6.78;;;4.72;;
7931;SDS011;4011;49.424;10.894;2023-07-08T02:18:48;7.00;;;4.72;;
7931;SDS011;4011;49.424;10.894;2023-07-08T02:24:11;7.53;;;4.85;;
7931;SDS011;4011;49.424;10.894;2023-07-08T02:29:34;6.50;;;5.00;;
7931;SDS011;4011;49.424;10.894;2023-07-08T02:34:58;7.07;;;4.60;;
7931;SDS011;4011;49.424;10.894;2023-07-08T02:40:19;7.50;;;5.22;;
7931;SDS011;4011;49.424;10.894;2023-07-08T02:45:42;6.43;;;4.80;;
7931;SDS011;4011;49.424;10.894;2023-07-08T02:51:04;7.38;;;5.13;;
7931;SDS011;4011;49.424;10.894;2023-07-08T02:56:28;7.38;;;5.38;;
7931;SDS011;4011;49.424;10.894;2023-07-08T03:01:52;6.80;;;5.03;;
7931;SDS011;4011;49.424;10.894;2023-07-08T03:07:14;6.80;;;4.72;;
7931;SDS011;4011;49.424;10.894;2023-07-08T03:12:36;6.75;;;4.88;;
7931;SDS011;4011;49.424;10.894;2023-07-08T03:18:00;7.85;;;5.40;;
7931;SDS011;4011;49.424;10.894;2023-07-08T03:23:21;7.88;;;5.28;;
7931;SDS011;4011;49.424;10.894;2023-07-08T03:28:44;7.53;;;5.28;;
7931;SDS011;4011;49.424;10.894;2023-07-08T03:34:08;7.57;;;5.05;;
7931;SDS011;4011;49.424;10.894;2023-07-08T03:44:53;6.70;;;5.15;;
7931;SDS011;4011;49.424;10.894;2023-07-08T03:50:17;7.93;;;5.05;;
7931;SDS011;4011;49.424;10.894;2023-07-08T03:55:39;7.43;;;5.13;;
7931;SDS011;4011;49.424;10.894;2023-07-08T04:01:01;7.65;;;5.70;;
7931;SDS011;4011;49.424;10.894;2023-07-08T04:06:25;6.75;;;4.90;;
7931;SDS011;4011;49.424;10.894;2023-07-08T04:11:47;7.75;;;5.28;;
7931;SDS011;4011;49.424;10.894;2023-07-08T04:17:08;7.60;;;5.47;;
7931;SDS011;4011;49.424;10.894;2023-07-08T04:22:32;7.75;;;5.70;;
7931;SDS011;4011;49.424;10.894;2023-07-08T04:27:53;7.15;;;5.20;;
7931;SDS011;4011;49.424;10.894;2023-07-08T04:33:16;8.00;;;5.30;;
7931;SDS011;4011;49.424;10.894;2023-07-08T04:38:39;9.90;;;6.13;;
7931;SDS011;4011;49.424;10.894;2023-07-08T04:44:02;8.18;;;5.97;;
7931;SDS011;4011;49.424;10.894;2023-07-08T04:49:25;9.50;;;6.18;;
7931;SDS011;4011;49.424;10.894;2023-07-08T04:54:50;8.05;;;6.15;;
7931;SDS011;4011;49.424;10.894;2023-07-08T05:00:12;8.73;;;5.93;;
7931;SDS011;4011;49.424;10.894;2023-07-08T05:05:37;7.80;;;5.72;;
7931;SDS011;4011;49.424;10.894;2023-07-08T05:11:03;10.00;;;6.45;;
7931;SDS011;4011;49.424;10.894;2023-07-08T05:16:24;9.85;;;6.72;;
7931;SDS011;4011;49.424;10.894;2023-07-08T05:21:46;9.13;;;6.15;;
7931;SDS011;4011;49.424;10.894;2023-07-08T05:27:09;9.00;;;5.45;;
7931;SDS011;4011;49.424;10.894;2023-07-08T05:37:55;7.35;;;5.55;;
7931;SDS011;4011;49.424;10.894;2023-07-08T05:43:18;8.07;;;5.68;;
7931;SDS011;4011;49.424;10.894;2023-07-08T05:48:39;7.30;;;5.47;;
7931;SDS011;4011;49.424;10.894;2023-07-08T05:54:01;8.13;;;6.30;;
7931;SDS011;4011;49.424;10.894;2023-07-08T05:59:25;8.00;;;6.00;;
7931;SDS011;4011;49.424;10.894;2023-07-08T06:04:46;8.93;;;5.65;;
7931;SDS011;4011;49.424;10.894;2023-07-08T06:10:08;7.85;;;5.70;;
7931;SDS011;4011;49.424;10.894;2023-07-08T06:15:31;8.57;;;6.15;;
7931;SDS011;4011;49.424;10.894;2023-07-08T06:20:53;7.40;;;5.13;;
7931;SDS011;4011;49.424;10.894;2023-07-08T06:26:15;7.85;;;5.53;;
7931;SDS011;4011;49.424;10.894;2023-07-08T06:31:38;7.63;;;6.00;;
7931;SDS011;4011;49.424;10.894;2023-07-08T06:37:00;8.82;;;6.07;;
7931;SDS011;4011;49.424;10.894;2023-07-08T06:42:21;7.78;;;5.38;;
7931;SDS011;4011;49.424;10.894;2023-07-08T06:47:44;7.07;;;4.85;;
7931;SDS011;4011;49.424;10.894;2023-07-08T06:53:06;7.80;;;5.32;;
7931;SDS011;4011;49.424;10.894;2023-07-08T06:58:28;8.52;;;5.45;;
7931;SDS011;4011;49.424;10.894;2023-07-08T07:03:51;7.55;;;5.40;;
7931;SDS011;4011;49.424;10.894;2023-07-08T07:09:13;8.90;;;5.22;;
7931;SDS011;4011;49.424;10.894;2023-07-08T07:14:34;7.63;;;5.50;;
7931;SDS011;4011;49.424;10.894;2023-07-08T07:19:58;8.65;;;4.85;;
7931;SDS011;4011;49.424;10.894;2023-07-08T07:25:19;8.02;;;4.70;;
7931;SDS011;4011;49.424;10.894;2023-07-08T07:30:41;7.85;;;5.15;;
7931;SDS011;4011;49.424;10.894;2023-07-08T07:36:04;5.82;;;4.35;;
7931;SDS011;4011;49.424;10.894;2023-07-08T07:41:26;8.10;;;5.22;;
7931;SDS011;4011;49.424;10.894;2023-07-08T07:46:48;7.78;;;4.90;;
7931;SDS011;4011;49.424;10.894;2023-07-08T07:52:11;7.95;;;5.07;;
7931;SDS011;4011;49.424;10.894;2023-07-08T07:57:33;7.13;;;4.60;;
7931;SDS011;4011;49.424;10.894;2023-07-08T08:02:55;6.03;;;4.50;;
7931;SDS011;4011;49.424;10.894;2023-07-08T08:08:18;7.05;;;5.03;;
7931;SDS011;4011;49.424;10.894;2023-07-08T08:13:40;7.70;;;5.07;;
7931;SDS011;4011;49.424;10.894;2023-07-08T08:19:02;5.65;;;4.50;;
7931;SDS011;4011;49.424;10.894;2023-07-08T08:24:27;7.90;;;4.30;;
7931;SDS011;4011;49.424;10.894;2023-07-08T08:29:48;6.68;;;4.57;;
7931;SDS011;4011;49.424;10.894;2023-07-08T08:35:10;7.20;;;4.28;;
7931;SDS011;4011;49.424;10.894;2023-07-08T08:40:33;5.95;;;4.32;;
7931;SDS011;4011;49.424;10.894;2023-07-08T08:45:56;7.15;;;4.55;;
7931;SDS011;4011;49.424;10.894;2023-07-08T08:51:18;5.90;;;4.30;;
7931;SDS011;4011;49.424;10.894;2023-07-08T08:56:45;6.18;;;4.18;;
7931;SDS011;4011;49.424;10.894;2023-07-08T09:02:21;5.72;;;4.20;;
7931;SDS011;4011;49.424;10.894;2023-07-08T09:07:45;6.07;;;4.10;;
7931;SDS011;4011;49.424;10.894;2023-07-08T09:13:10;6.70;;;4.43;;
7931;SDS011;4011;49.424;10.894;2023-07-08T09:18:33;5.30;;;3.75;;
7931;SDS011;4011;49.424;10.894;2023-07-08T09:23:59;7.15;;;4.57;;
7931;SDS011;4011;49.424;10.894;2023-07-08T09:29:22;6.28;;;4.30;;
7931;SDS011;4011;49.424;10.894;2023-07-08T09:34:45;6.68;;;4.40;;
7931;SDS011;4011;49.424;10.894;2023-07-08T09:40:14;6.47;;;4.57;;
7931;SDS011;4011;49.424;10.894;2023-07-08T09:45:41;8.90;;;4.22;;
7931;SDS011;4011;49.424;10.894;2023-07-08T09:51:03;7.55;;;4.10;;
7931;SDS011;4011;49.424;10.894;2023-07-08T09:56:27;6.88;;;4.32;;
7931;SDS011;4011;49.424;10.894;2023-07-08T10:01:50;6.05;;;3.90;;
7931;SDS011;4011;49.424;10.894;2023-07-08T10:07:12;6.70;;;4.18;;
7931;SDS011;4011;49.424;10.894;2023-07-08T10:12:38;6.95;;;4.60;;
7931;SDS011;4011;49.424;10.894;2023-07-08T10:18:03;6.95;;;4.25;;
7931;SDS011;4011;49.424;10.894;2023-07-08T10:23:29;7.25;;;4.55;;
7931;SDS011;4011;49.424;10.894;2023-07-08T10:29:02;6.13;;;4.35;;
7931;SDS011;4011;49.424;10.894;2023-07-08T10:39:55;5.38;;;3.90;;
7931;SDS011;4011;49.424;10.894;2023-07-08T10:45:20;5.45;;;3.72;;
7931;SDS011;4011;49.424;10.894;2023-07-08T10:50:49;5.95;;;3.92;;
7931;SDS011;4011;49.424;10.894;2023-07-08T10:56:16;6.13;;;3.80;;
7931;SDS011;4011;49.424;10.894;2023-07-08T11:01:41;6.82;;;4.03;;
7931;SDS011;4011;49.424;10.894;2023-07-08T11:07:07;5.60;;;4.18;;
7931;SDS011;4011;49.424;10.894;2023-07-08T11:12:34;6.40;;;4.10;;
7931;SDS011;4011;49.424;10.894;2023-07-08T11:18:06;6.03;;;4.53;;
7931;SDS011;4011;49.424;10.894;2023-07-08T11:23:32;6.45;;;4.15;;
7931;SDS011;4011;49.424;10.894;2023-07-08T11:28:56;7.07;;;4.57;;
7931;SDS011;4011;49.424;10.894;2023-07-08T11:34:18;5.53;;;4.00;;
7931;SDS011;4011;49.424;10.894;2023-07-08T11:39:43;5.82;;;4.03;;
7931;SDS011;4011;49.424;10.894;2023-07-08T11:45:12;6.63;;;4.10;;
7931;SDS011;4011;49.424;10.894;2023-07-08T11:50:37;6.25;;;4.03;;
7931;SDS011;4011;49.424;10.894;2023-07-08T11:56:00;5.78;;;3.92;;
7931;SDS011;4011;49.424;10.894;2023-07-08T12:01:25;6.85;;;4.18;;
7931;SDS011;4011;49.424;10.894;2023-07-08T12:06:53;5.45;;;3.80;;
7931;SDS011;4011;49.424;10.894;2023-07-08T12:12:20;7.05;;;4.55;;
7931;SDS011;4011;49.424;10.894;2023-07-08T12:17:44;5.82;;;4.05;;
7931;SDS011;4011;49.424;10.894;2023-07-08T12:23:09;6.35;;;4.07;;
7931;SDS011;4011;49.424;10.894;2023-07-08T12:28:40;7.15;;;4.75;;
7931;SDS011;4011;49.424;10.894;2023-07-08T12:34:03;5.90;;;3.88;;
7931;SDS011;4011;49.424;10.894;2023-07-08T12:39:26;7.20;;;4.50;;
7931;SDS011;4011;49.424;10.894;2023-07-08T12:44:48;7.60;;;4.50;;
7931;SDS011;4011;49.424;10.894;2023-07-08T12:50:12;6.25;;;3.88;;
7931;SDS011;4011;49.424;10.894;2023-07-08T12:55:34;5.70;;;3.97;;
7931;SDS011;4011;49.424;10.894;2023-07-08T13:01:01;6.72;;;4.65;;
7931;SDS011;4011;49.424;10.894;2023-07-08T13:06:29;6.53;;;4.55;;
7931;SDS011;4011;49.424;10.894;2023-07-08T13:11:51;6.60;;;4.20;;
7931;SDS011;4011;49.424;10.894;2023-07-08T13:17:13;5.50;;;4.13;;
7931;SDS011;4011;49.424;10.894;2023-07-08T13:22:37;6.22;;;4.38;;
7931;SDS011;4011;49.424;10.894;2023-07-08T13:27:59;5.72;;;4.03;;
7931;SDS011;4011;49.424;10.894;2023-07-08T13:33:22;6.40;;;4.03;;
7931;SDS011;4011;49.424;10.894;2023-07-08T13:38:45;5.35;;;3.55;;
7931;SDS011;4011;49.424;10.894;2023-07-08T13:44:08;5.78;;;4.10;;
7931;SDS011;4011;49.424;10.894;2023-07-08T13:49:38;6.50;;;4.28;;
7931;SDS011;4011;49.424;10.894;2023-07-08T13:55:06;5.78;;;4.32;;
7931;SDS011;4011;49.424;10.894;2023-07-08T14:00:32;6.32;;;4.30;;
7931;SDS011;4011;49.424;10.894;2023-07-08T14:05:53;5.90;;;4.30;;
7931;SDS011;4011;49.424;10.894;2023-07-08T14:11:17;5.80;;;4.30;;
7931;SDS011;4011;49.424;10.894;2023-07-08T14:16:40;5.40;;;3.75;;
7931;SDS011;4011;49.424;10.894;2023-07-08T14:22:09;5.95;;;4.00;;
7931;SDS011;4011;49.424;10.894;2023-07-08T14:27:39;5.38;;;3.65;;
7931;SDS011;4011;49.424;10.894;2023-07-08T14:33:03;5.32;;;3.70;;
7931;SDS011;4011;49.424;10.894;2023-07-08T14:38:26;6.78;;;4.28;;
7931;SDS011;4011;49.424;10.894;2023-07-08T14:43:49;6.40;;;4.25;;
7931;SDS011;4011;49.424;10.894;2023-07-08T14:49:14;6.05;;;4.25;;
7931;SDS011;4011;49.424;10.894;2023-07-08T14:54:36;6.18;;;4.10;;
7931;SDS011;4011;49.424;10.894;2023-07-08T15:00:00;6.22;;;4.50;;
7931;SDS011;4011;49.424;10.894;2023-07-08T15:05:22;6.50;;;4.10;;
7931;SDS011;4011;49.424;10.894;2023-07-08T15:10:46;6.05;;;4.25;;
7931;SDS011;4011;49.424;10.894;2023-07-08T15:16:11;6.63;;;3.97;;
7931;SDS011;4011;49.424;10.894;2023-07-08T15:27:21;5.25;;;3.65;;
7931;SDS011;4011;49.424;10.894;2023-07-08T15:32:46;6.57;;;3.90;;
7931;SDS011;4011;49.424;10.894;2023-07-08T15:38:08;7.13;;;4.35;;
7931;SDS011;4011;49.424;10.894;2023-07-08T15:43:30;6.60;;;4.13;;
7931;SDS011;4011;49.424;10.894;2023-07-08T15:48:55;6.13;;;3.83;;
7931;SDS011;4011;49.424;10.894;2023-07-08T15:54:17;6.03;;;3.90;;
7931;SDS011;4011;49.424;10.894;2023-07-08T15:59:40;5.20;;;3.70;;
7931;SDS011;4011;49.424;10.894;2023-07-08T16:05:04;6.47;;;4.15;;
7931;SDS011;4011;49.424;10.894;2023-07-08T16:10:26;6.43;;;4.03;;
7931;SDS011;4011;49.424;10.894;2023-07-08T16:15:48;8.45;;;4.47;;
7931;SDS011;4011;49.424;10.894;2023-07-08T16:21:12;7.07;;;4.18;;
7931;SDS011;4011;49.424;10.894;2023-07-08T16:26:36;7.72;;;4.57;;
7931;SDS011;4011;49.424;10.894;2023-07-08T16:31:59;5.97;;;4.03;;
7931;SDS011;4011;49.424;10.894;2023-07-08T16:37:22;6.70;;;4.30;;
7931;SDS011;4011;49.424;10.894;2023-07-08T16:42:44;7.00;;;4.03;;
7931;SDS011;4011;49.424;10.894;2023-07-08T16:48:07;5.63;;;4.00;;
7931;SDS011;4011;49.424;10.894;2023-07-08T16:53:31;5.95;;;4.05;;
7931;SDS011;4011;49.424;10.894;2023-07-08T16:58:53;5.40;;;3.75;;
7931;SDS011;4011;49.424;10.894;2023-07-08T17:04:15;5.70;;;4.43;;
7931;SDS011;4011;49.424;10.894;2023-07-08T17:09:41;6.20;;;3.92;;
7931;SDS011;4011;49.424;10.894;2023-07-08T17:15:03;7.35;;;4.80;;
7931;SDS011;4011;49.424;10.894;2023-07-08T17:20:25;7.15;;;4.00;;
7931;SDS011;4011;49.424;10.894;2023-07-08T17:25:49;6.10;;;3.95;;
7931;SDS011;4011;49.424;10.894;2023-07-08T17:31:13;6.07;;;3.88;;
7931;SDS011;4011;49.424;10.894;2023-07-08T17:36:37;6.68;;;4.78;;
7931;SDS011;4011;49.424;10.894;2023-07-08T17:42:00;6.70;;;4.10;;
7931;SDS011;4011;49.424;10.894;2023-07-08T17:47:22;6.13;;;4.20;;
7931;SDS011;4011;49.424;10.894;2023-07-08T17:52:44;6.05;;;3.97;;
7931;SDS011;4011;49.424;10.894;2023-07-08T17:58:08;6.20;;;4.20;;
7931;SDS011;4011;49.424;10.894;2023-07-08T18:03:32;7.97;;;4.70;;
7931;SDS011;4011;49.424;10.894;2023-07-08T18:08:55;6.07;;;4.22;;
7931;SDS011;4011;49.424;10.894;2023-07-08T18:14:19;6.38;;;4.22;;
7931;SDS011;4011;49.424;10.894;2023-07-08T18:19:40;6.25;;;3.83;;
7931;SDS011;4011;49.424;10.894;2023-07-08T18:25:04;6.28;;;4.20;;
7931;SDS011;4011;49.424;10.894;2023-07-08T18:30:28;7.60;;;4.25;;
7931;SDS011;4011;49.424;10.894;2023-07-08T18:35:50;7.25;;;4.50;;
7931;SDS011;4011;49.424;10.894;2023-07-08T18:41:13;7.70;;;4.25;;
7931;SDS011;4011;49.424;10.894;2023-07-08T18:46:36;7.68;;;4.38;;
7931;SDS011;4011;49.424;10.894;2023-07-08T18:52:00;7.32;;;4.45;;
7931;SDS011;4011;49.424;10.894;2023-07-08T18:57:21;7.93;;;4.30;;
7931;SDS011;4011;49.424;10.894;2023-07-08T19:02:49;8.35;;;4.43;;
7931;SDS011;4011;49.424;10.894;2023-07-08T19:08:12;7.22;;;4.53;;
7931;SDS011;4011;49.424;10.894;2023-07-08T19:13:35;6.68;;;4.45;;
7931;SDS011;4011;49.424;10.894;2023-07-08T19:18:58;9.10;;;5.30;;
7931;SDS011;4011;49.424;10.894;2023-07-08T19:24:20;7.20;;;5.20;;
7931;SDS011;4011;49.424;10.894;2023-07-08T19:29:42;7.38;;;5.30;;
7931;SDS011;4011;49.424;10.894;2023-07-08T19:35:10;7.68;;;5.28;;
7931;SDS011;4011;49.424;10.894;2023-07-08T19:40:33;8.25;;;5.32;;
7931;SDS011;4011;49.424;10.894;2023-07-08T19:45:55;7.35;;;5.07;;
7931;SDS011;4011;49.424;10.894;2023-07-08T19:51:20;8.88;;;5.60;;
7931;SDS011;4011;49.424;10.894;2023-07-08T19:56:42;7.88;;;5.55;;
7931;SDS011;4011;49.424;10.894;2023-07-08T20:02:08;9.35;;;5.95;;
7931;SDS011;4011;49.424;10.894;2023-07-08T20:07:36;9.45;;;6.07;;
7931;SDS011;4011;49.424;10.894;2023-07-08T20:13:01;7.70;;;5.80;;
7931;SDS011;4011;49.424;10.894;2023-07-08T20:18:27;8.88;;;6.07;;
7931;SDS011;4011;49.424;10.894;2023-07-08T20:23:51;8.25;;;6.05;;
7931;SDS011;4011;49.424;10.894;2023-07-08T20:29:14;8.73;;;5.95;;
7931;SDS011;4011;49.424;10.894;2023-07-08T20:34:41;10.23;;;5.93;;
7931;SDS011;4011;49.424;10.894;2023-07-08T20:40:15;7.90;;;5.60;;
7931;SDS011;4011;49.424;10.894;2023-07-08T20:45:38;7.47;;;5.43;;
7931;SDS011;4011;49.424;10.894;2023-07-08T20:51:02;7.47;;;5.13;;
7931;SDS011;4011;49.424;10.894;2023-07-08T20:56:27;8.75;;;5.68;;
7931;SDS011;4011;49.424;10.894;2023-07-08T21:01:53;8.48;;;6.40;;
7931;SDS011;4011;49.424;10.894;2023-07-08T21:07:19;8.20;;;5.95;;
7931;SDS011;4011;49.424;10.894;2023-07-08T21:12:46;8.85;;;5.88;;
7931;SDS011;4011;49.424;10.894;2023-07-08T21:18:10;9.48;;;6.68;;
7931;SDS011;4011;49.424;10.894;2023-07-08T21:23:33;10.50;;;6.65;;
7931;SDS011;4011;49.424;10.894;2023-07-08T21:28:58;8.05;;;6.07;;
7931;SDS011;4011;49.424;10.894;2023-07-08T21:34:20;7.63;;;6.00;;
7931;SDS011;4011;49.424;10.894;2023-07-08T21:39:43;8.52;;;6.20;;
7931;SDS011;4011;49.424;10.894;2023-07-08T21:45:11;8.02;;;6.20;;
7931;SDS011;4011;49.424;10.894;2023-07-08T21:50:38;9.73;;;6.93;;
7931;SDS011;4011;49.424;10.894;2023-07-08T21:56:00;8.77;;;5.97;;
7931;SDS011;4011;49.424;10.894;2023-07-08T22:01:25;7.82;;;6.28;;
7931;SDS011;4011;49.424;10.894;2023-07-08T22:12:09;9.30;;;6.22;;
7931;SDS011;4011;49.424;10.894;2023-07-08T22:17:33;8.57;;;6.07;;
7931;SDS011;4011;49.424;10.894;2023-07-08T22:22:55;9.20;;;6.18;;
7931;SDS011;4011;49.424;10.894;2023-07-08T22:28:17;9.10;;;6.65;;
7931;SDS011;4011;49.424;10.894;2023-07-08T22:33:40;10.35;;;6.85;;
7931;SDS011;4011;49.424;10.894;2023-07-08T22:39:03;10.07;;;6.65;;
7931;SDS011;4011;49.424;10.894;2023-07-08T22:44:28;10.00;;;7.10;;
7931;SDS011;4011;49.424;10.894;2023-07-08T22:49:52;9.43;;;6.38;;
7931;SDS011;4011;49.424;10.894;2023-07-08T22:55:16;10.13;;;7.22;;
7931;SDS011;4011;49.424;10.894;2023-07-08T23:00:41;11.75;;;7.05;;
7931;SDS011;4011;49.424;10.894;2023-07-08T23:06:04;8.70;;;6.63;;
7931;SDS011;4011;49.424;10.894;2023-07-08T23:11:28;8.77;;;6.22;;
7931;SDS011;4011;49.424;10.894;2023-07-08T23:16:54;8.25;;;6.30;;
7931;SDS011;4011;49.424;10.894;2023-07-08T23:22:19;9.00;;;6.40;;
7931;SDS011;4011;49.424;10.894;2023-07-08T23:27:41;9.05;;;5.93;;
7931;SDS011;4011;49.424;10.894;2023-07-08T23:33:03;9.45;;;6.60;;
7931;SDS011;4011;49.424;10.894;2023-07-08T23:38:28;10.52;;;6.82;;
7931;SDS011;4011;49.424;10.894;2023-07-08T23:43:50;8.88;;;6.80;;
7931;SDS011;4011;49.424;10.894;2023-07-08T23:49:16;9.80;;;6.65;;
7931;SDS011;4011;49.424;10.894;2023-07-08T23:54:42;9.20;;;6.70;;
